sensor_id;sensor_type;location;lat;lon;timestamp;pressure;altitude;pressure_sealevel;temperature;humidity
11329;BME280;5719;42.714;23.732;2023-02-13T00:00:22;96116.88;;;0.33;83.43
11329;BME280;5719;42.714;23.732;2023-02-13T00:02:49;96113.47;;;0.34;83.37
11329;BME280;5719;42.714;23.732;2023-02-13T00:05:16;96110.91;;;0.38;83.94
11329;BME280;5719;42.714;23.732;2023-02-13T00:07:43;96108.41;;;0.31;84.64
11329;BME280;5719;42.714;23.732;2023-02-13T00:10:10;96130.41;;;0.42;82.98
11329;BME280;5719;42.714;23.732;2023-02-13T00:12:37;96126.13;;;0.46;82.99
11329;BME280;5719;42.714;23.732;2023-02-13T00:15:06;96134.59;;;0.48;82.74
11329;BME280;5719;42.714;23.732;2023-02-13T00:17:34;96127.84;;;0.47;82.74
11329;BME280;5719;42.714;23.732;2023-02-13T00:20:01;96124.41;;;0.48;82.61
11329;BME280;5719;42.714;23.732;2023-02-13T00:22:27;96126.97;;;0.46;82.68
11329;BME280;5719;42.714;23.732;2023-02-13T00:24:54;96134.63;;;0.42;82.30
11329;BME280;5719;42.714;23.732;2023-02-13T00:27:21;96073.00;;;0.02;82.36
11329;BME280;5719;42.714;23.732;2023-02-13T00:29:48;96126.25;;;0.28;82.82
11329;BME280;5719;42.714;23.732;2023-02-13T00:32:16;96144.00;;;0.34;83.47
11329;BME280;5719;42.714;23.732;2023-02-13T00:34:43;96137.22;;;0.34;83.90
11329;BME280;5719;42.714;23.732;2023-02-13T00:37:10;96138.94;;;0.32;83.27
11329;BME280;5719;42.714;23.732;2023-02-13T00:39:37;96144.06;;;0.28;83.72
11329;BME280;5719;42.714;23.732;2023-02-13T00:42:04;96143.19;;;0.30;83.09
11329;BME280;5719;42.714;23.732;2023-02-13T00:44:31;96144.03;;;0.31;83.56
11329;BME280;5719;42.714;23.732;2023-02-13T00:46:58;96135.59;;;0.24;84.03
11329;BME280;5719;42.714;23.732;2023-02-13T00:49:26;96137.28;;;0.25;82.70
11329;BME280;5719;42.714;23.732;2023-02-13T00:51:53;96144.03;;;0.29;83.31
11329;BME280;5719;42.714;23.732;2023-02-13T00:54:20;96142.31;;;0.30;83.15
11329;BME280;5719;42.714;23.732;2023-02-13T00:56:47;96146.59;;;0.28;83.33
11329;BME280;5719;42.714;23.732;2023-02-13T00:59:14;96138.13;;;0.26;82.61
11329;BME280;5719;42.714;23.732;2023-02-13T01:01:42;96134.75;;;0.22;82.10
11329;BME280;5719;42.714;23.732;2023-02-13T01:04:09;96150.81;;;0.26;82.94
11329;BME280;5719;42.714;23.732;2023-02-13T01:06:38;96144.91;;;0.25;82.36
11329;BME280;5719;42.714;23.732;2023-02-13T01:09:05;96149.16;;;0.23;82.49
11329;BME280;5719;42.714;23.732;2023-02-13T01:11:31;96126.31;;;0.16;83.18
11329;BME280;5719;42.714;23.732;2023-02-13T01:13:58;96136.47;;;0.16;83.35
11329;BME280;5719;42.714;23.732;2023-02-13T01:16:25;96134.81;;;0.12;82.71
11329;BME280;5719;42.714;23.732;2023-02-13T01:18:52;96153.38;;;0.23;83.47
11329;BME280;5719;42.714;23.732;2023-02-13T01:21:21;96160.19;;;0.24;83.43
11329;BME280;5719;42.714;23.732;2023-02-13T01:23:50;96152.56;;;0.25;84.47
11329;BME280;5719;42.714;23.732;2023-02-13T01:26:20;96134.78;;;0.15;84.42
11329;BME280;5719;42.714;23.732;2023-02-13T01:28:50;96147.44;;;0.28;83.94
11329;BME280;5719;42.714;23.732;2023-02-13T01:31:17;96135.63;;;0.20;83.88
11329;BME280;5719;42.714;23.732;2023-02-13T01:33:44;96153.41;;;0.24;84.22
11329;BME280;5719;42.714;23.732;2023-02-13T01:36:12;96150.84;;;0.24;84.56
11329;BME280;5719;42.714;23.732;2023-02-13T01:38:40;96155.09;;;0.24;85.18
11329;BME280;5719;42.714;23.732;2023-02-13T01:41:08;96151.69;;;0.25;85.08
11329;BME280;5719;42.714;23.732;2023-02-13T01:43:44;96095.09;;;-0.11;85.28
11329;BME280;5719;42.714;23.732;2023-02-13T01:46:12;96152.56;;;0.25;85.99
11329;BME280;5719;42.714;23.732;2023-02-13T01:48:41;96153.38;;;0.26;85.45
11329;BME280;5719;42.714;23.732;2023-02-13T01:51:10;96154.22;;;0.26;85.02
11329;BME280;5719;42.714;23.732;2023-02-13T01:53:39;96155.06;;;0.27;85.84
11329;BME280;5719;42.714;23.732;2023-02-13T01:56:14;96144.91;;;0.27;86.66
11329;BME280;5719;42.714;23.732;2023-02-13T01:58:45;96149.97;;;0.30;86.91
11329;BME280;5719;42.714;23.732;2023-02-13T02:01:13;96148.28;;;0.32;86.65
11329;BME280;5719;42.714;23.732;2023-02-13T02:03:43;96149.13;;;0.31;86.97
11329;BME280;5719;42.714;23.732;2023-02-13T02:06:16;96152.47;;;0.33;87.12
11329;BME280;5719;42.714;23.732;2023-02-13T02:08:45;96149.13;;;0.32;88.31
11329;BME280;5719;42.714;23.732;2023-02-13T02:11:21;96153.34;;;0.35;87.93
11329;BME280;5719;42.714;23.732;2023-02-13T02:13:50;96153.34;;;0.35;86.60
11329;BME280;5719;42.714;23.732;2023-02-13T02:16:17;96137.28;;;0.25;87.17
11329;BME280;5719;42.714;23.732;2023-02-13T02:18:45;96146.63;;;0.25;87.36
11329;BME280;5719;42.714;23.732;2023-02-13T02:27:40;96157.59;;;0.27;86.83
11329;BME280;5719;42.714;23.732;2023-02-13T02:33:32;96158.47;;;0.24;87.36
11329;BME280;5719;42.714;23.732;2023-02-13T02:36:17;96163.53;;;0.26;88.11
11329;BME280;5719;42.714;23.732;2023-02-13T02:38:59;96164.38;;;0.26;87.87
11329;BME280;5719;42.714;23.732;2023-02-13T02:41:34;96171.19;;;0.27;87.80
11329;BME280;5719;42.714;23.732;2023-02-13T02:44:20;96177.13;;;0.28;88.04
11329;BME280;5719;42.714;23.732;2023-02-13T02:46:57;96174.56;;;0.28;87.81
11329;BME280;5719;42.714;23.732;2023-02-13T02:49:49;96176.25;;;0.29;87.18
11329;BME280;5719;42.714;23.732;2023-02-13T02:52:34;96168.66;;;0.23;86.97
11329;BME280;5719;42.714;23.732;2023-02-13T02:55:09;96164.44;;;0.22;87.96
11329;BME280;5719;42.714;23.732;2023-02-13T02:57:45;96181.34;;;0.27;88.33
11329;BME280;5719;42.714;23.732;2023-02-13T03:00:33;96180.50;;;0.27;88.63
11329;BME280;5719;42.714;23.732;2023-02-13T03:03:21;96164.44;;;0.22;87.93
11329;BME280;5719;42.714;23.732;2023-02-13T03:06:11;96168.63;;;0.26;88.16
11329;BME280;5719;42.714;23.732;2023-02-13T03:08:44;96178.00;;;0.18;88.17
11329;BME280;5719;42.714;23.732;2023-02-13T03:11:30;96172.06;;;0.16;88.29
11329;BME280;5719;42.714;23.732;2023-02-13T03:14:18;96188.16;;;0.24;89.33
11329;BME280;5719;42.714;23.732;2023-02-13T03:16:46;96182.22;;;0.25;89.64
11329;BME280;5719;42.714;23.732;2023-02-13T03:19:40;96183.91;;;0.29;88.86
11329;BME280;5719;42.714;23.732;2023-02-13T03:22:35;96178.78;;;0.32;89.84
11329;BME280;5719;42.714;23.732;2023-02-13T03:25:11;96168.63;;;0.29;89.63
11329;BME280;5719;42.714;23.732;2023-02-13T03:27:48;96164.50;;;0.05;91.34
11329;BME280;5719;42.714;23.732;2023-02-13T03:30:40;96167.84;;;0.18;91.23
11329;BME280;5719;42.714;23.732;2023-02-13T03:33:22;96173.72;;;0.23;91.17
11329;BME280;5719;42.714;23.732;2023-02-13T03:35:59;96173.72;;;0.27;90.96
11329;BME280;5719;42.714;23.732;2023-02-13T03:38:53;96174.59;;;0.25;90.03
11329;BME280;5719;42.714;23.732;2023-02-13T03:41:25;96178.78;;;0.32;90.61
11329;BME280;5719;42.714;23.732;2023-02-13T03:44:01;96179.63;;;0.35;91.25
11329;BME280;5719;42.714;23.732;2023-02-13T03:46:34;96182.16;;;0.40;90.20
11329;BME280;5719;42.714;23.732;2023-02-13T03:49:03;96181.25;;;0.45;90.59
11329;BME280;5719;42.714;23.732;2023-02-13T03:51:52;96177.84;;;0.48;90.60
11329;BME280;5719;42.714;23.732;2023-02-13T03:54:25;96179.56;;;0.44;91.11
11329;BME280;5719;42.714;23.732;2023-02-13T03:57:15;96176.16;;;0.45;90.41
11329;BME280;5719;42.714;23.732;2023-02-13T04:00:05;96185.50;;;0.42;90.54
11329;BME280;5719;42.714;23.732;2023-02-13T04:02:37;96176.44;;;-0.12;93.88
11329;BME280;5719;42.714;23.732;2023-02-13T04:05:08;96183.97;;;0.08;93.11
11329;BME280;5719;42.714;23.732;2023-02-13T04:07:36;96187.31;;;0.19;93.29
11329;BME280;5719;42.714;23.732;2023-02-13T04:10:07;96184.72;;;0.26;93.45
11329;BME280;5719;42.714;23.732;2023-02-13T04:12:41;96187.25;;;0.31;92.34
11329;BME280;5719;42.714;23.732;2023-02-13T04:15:14;96192.31;;;0.37;93.25
11329;BME280;5719;42.714;23.732;2023-02-13T04:17:45;96194.00;;;0.38;92.60
11329;BME280;5719;42.714;23.732;2023-02-13T04:20:14;96199.06;;;0.45;91.80
11329;BME280;5719;42.714;23.732;2023-02-13T04:22:42;96197.34;;;0.51;91.54
11329;BME280;5719;42.714;23.732;2023-02-13T04:25:11;96185.50;;;0.45;91.91
11329;BME280;5719;42.714;23.732;2023-02-13T04:27:39;96191.38;;;0.53;91.46
11329;BME280;5719;42.714;23.732;2023-02-13T04:30:07;96129.72;;;0.12;92.79
11329;BME280;5719;42.714;23.732;2023-02-13T04:32:34;96193.25;;;0.21;92.66
11329;BME280;5719;42.714;23.732;2023-02-13T04:35:01;96184.72;;;0.32;93.57
11329;BME280;5719;42.714;23.732;2023-02-13T04:37:28;96194.00;;;0.41;92.93
11329;BME280;5719;42.714;23.732;2023-02-13T04:39:55;96188.03;;;0.40;93.44
11329;BME280;5719;42.714;23.732;2023-02-13T04:42:23;96190.56;;;0.48;93.23
11329;BME280;5719;42.714;23.732;2023-02-13T04:44:50;96203.25;;;0.53;94.09
11329;BME280;5719;42.714;23.732;2023-02-13T04:47:17;96197.34;;;0.47;96.07
11329;BME280;5719;42.714;23.732;2023-02-13T04:49:44;96193.94;;;0.50;95.90
11329;BME280;5719;42.714;23.732;2023-02-13T04:52:11;96196.56;;;0.35;99.28
11329;BME280;5719;42.714;23.732;2023-02-13T04:54:39;96203.34;;;0.39;98.92
11329;BME280;5719;42.714;23.732;2023-02-13T04:57:07;96195.72;;;0.39;98.78
11329;BME280;5719;42.714;23.732;2023-02-13T04:59:35;96187.44;;;-0.13;100.00
11329;BME280;5719;42.714;23.732;2023-02-13T05:02:02;96196.66;;;0.17;100.00
11329;BME280;5719;42.714;23.732;2023-02-13T05:04:29;96210.16;;;0.31;100.00
11329;BME280;5719;42.714;23.732;2023-02-13T05:06:56;96205.88;;;0.39;99.35
11329;BME280;5719;42.714;23.732;2023-02-13T05:09:23;96210.09;;;0.46;99.04
11329;BME280;5719;42.714;23.732;2023-02-13T05:11:51;96197.38;;;0.46;98.50
11329;BME280;5719;42.714;23.732;2023-02-13T05:14:18;96207.56;;;0.38;99.98
11329;BME280;5719;42.714;23.732;2023-02-13T05:16:46;96197.41;;;0.34;100.00
11329;BME280;5719;42.714;23.732;2023-02-13T05:19:14;96210.06;;;0.49;99.85
11329;BME280;5719;42.714;23.732;2023-02-13T05:21:41;96210.00;;;0.55;99.48
11329;BME280;5719;42.714;23.732;2023-02-13T05:24:25;96204.13;;;0.44;99.34
11329;BME280;5719;42.714;23.732;2023-02-13T05:26:52;96218.56;;;0.45;98.14
11329;BME280;5719;42.714;23.732;2023-02-13T05:29:19;96218.50;;;0.51;98.78
11329;BME280;5719;42.714;23.732;2023-02-13T05:31:49;96222.72;;;0.61;97.36
11329;BME280;5719;42.714;23.732;2023-02-13T05:34:16;96212.53;;;0.64;97.84
11329;BME280;5719;42.714;23.732;2023-02-13T05:36:43;96218.44;;;0.66;96.73
11329;BME280;5719;42.714;23.732;2023-02-13T05:39:10;96227.72;;;0.76;97.33
11329;BME280;5719;42.714;23.732;2023-02-13T05:41:37;96232.78;;;0.79;96.12
11329;BME280;5719;42.714;23.732;2023-02-13T05:44:04;96231.94;;;0.82;96.68
11329;BME280;5719;42.714;23.732;2023-02-13T05:46:31;96228.53;;;0.81;96.94
11329;BME280;5719;42.714;23.732;2023-02-13T05:48:59;96229.38;;;0.82;96.79
11329;BME280;5719;42.714;23.732;2023-02-13T05:51:26;96235.28;;;0.87;95.89
11329;BME280;5719;42.714;23.732;2023-02-13T05:53:53;96239.50;;;0.89;96.18
11329;BME280;5719;42.714;23.732;2023-02-13T05:56:20;96236.09;;;0.92;96.56
11329;BME280;5719;42.714;23.732;2023-02-13T05:58:50;96225.88;;;0.98;96.37
11329;BME280;5719;42.714;23.732;2023-02-13T06:01:17;96226.69;;;1.03;95.42
11329;BME280;5719;42.714;23.732;2023-02-13T06:03:44;96236.84;;;1.08;95.99
11329;BME280;5719;42.714;23.732;2023-02-13T06:06:12;96239.41;;;1.03;95.68
11329;BME280;5719;42.714;23.732;2023-02-13T06:08:39;96244.63;;;0.85;96.72
11329;BME280;5719;42.714;23.732;2023-02-13T06:11:07;96241.25;;;0.81;96.86
11329;BME280;5719;42.714;23.732;2023-02-13T06:13:34;96251.41;;;0.90;97.02
11329;BME280;5719;42.714;23.732;2023-02-13T06:16:05;96246.25;;;0.96;96.82
11329;BME280;5719;42.714;23.732;2023-02-13T06:18:32;96259.84;;;0.95;98.39
11329;BME280;5719;42.714;23.732;2023-02-13T06:20:59;96255.59;;;0.97;98.19
11329;BME280;5719;42.714;23.732;2023-02-13T06:23:27;96248.81;;;0.98;99.06
11329;BME280;5719;42.714;23.732;2023-02-13T06:25:54;96258.91;;;1.09;98.93
11329;BME280;5719;42.714;23.732;2023-02-13T06:28:21;96239.41;;;1.05;98.30
11329;BME280;5719;42.714;23.732;2023-02-13T06:30:48;96259.69;;;1.20;98.47
11329;BME280;5719;42.714;23.732;2023-02-13T06:33:15;96257.97;;;1.19;97.64
11329;BME280;5719;42.714;23.732;2023-02-13T06:35:41;96257.09;;;1.24;96.69
11329;BME280;5719;42.714;23.732;2023-02-13T06:38:08;96257.09;;;1.26;96.17
11329;BME280;5719;42.714;23.732;2023-02-13T06:40:37;96248.63;;;1.21;96.54
11329;BME280;5719;42.714;23.732;2023-02-13T06:43:05;96265.59;;;1.23;97.14
11329;BME280;5719;42.714;23.732;2023-02-13T06:45:31;96260.47;;;1.26;97.64
11329;BME280;5719;42.714;23.732;2023-02-13T06:47:58;96266.38;;;1.33;97.15
11329;BME280;5719;42.714;23.732;2023-02-13T06:50:25;96267.19;;;1.35;95.92
11329;BME280;5719;42.714;23.732;2023-02-13T06:52:52;96260.41;;;1.37;95.75
11329;BME280;5719;42.714;23.732;2023-02-13T06:55:19;96251.94;;;1.32;95.65
11329;BME280;5719;42.714;23.732;2023-02-13T06:57:47;96254.44;;;1.38;96.34
11329;BME280;5719;42.714;23.732;2023-02-13T07:00:15;96263.75;;;1.42;95.94
11329;BME280;5719;42.714;23.732;2023-02-13T07:02:44;96256.94;;;1.45;96.36
11329;BME280;5719;42.714;23.732;2023-02-13T07:05:12;96256.03;;;1.51;95.29
11329;BME280;5719;42.714;23.732;2023-02-13T07:07:40;96258.56;;;1.53;94.61
11329;BME280;5719;42.714;23.732;2023-02-13T07:10:10;96239.91;;;1.46;95.44
11329;BME280;5719;42.714;23.732;2023-02-13T07:12:37;96257.69;;;1.55;95.10
11329;BME280;5719;42.714;23.732;2023-02-13T07:15:07;96272.94;;;1.58;94.18
11329;BME280;5719;42.714;23.732;2023-02-13T07:17:34;96269.66;;;1.48;93.87
11329;BME280;5719;42.714;23.732;2023-02-13T07:20:01;96258.59;;;1.48;94.11
11329;BME280;5719;42.714;23.732;2023-02-13T07:22:30;96274.59;;;1.65;93.89
11329;BME280;5719;42.714;23.732;2023-02-13T07:24:57;96271.38;;;1.45;93.75
11329;BME280;5719;42.714;23.732;2023-02-13T07:27:25;96273.56;;;0.67;97.88
11329;BME280;5719;42.714;23.732;2023-02-13T07:29:54;96270.06;;;0.88;97.38
11329;BME280;5719;42.714;23.732;2023-02-13T07:32:23;96268.22;;;1.13;95.93
11329;BME280;5719;42.714;23.732;2023-02-13T07:34:50;96275.75;;;1.26;95.09
11329;BME280;5719;42.714;23.732;2023-02-13T07:37:17;96274.81;;;1.41;95.31
11329;BME280;5719;42.714;23.732;2023-02-13T07:39:44;96271.41;;;1.42;95.68
11329;BME280;5719;42.714;23.732;2023-02-13T07:42:11;96262.03;;;1.42;94.85
11329;BME280;5719;42.714;23.732;2023-02-13T07:44:38;96269.59;;;1.56;95.44
11329;BME280;5719;42.714;23.732;2023-02-13T07:47:05;96270.34;;;1.66;95.83
11329;BME280;5719;42.714;23.732;2023-02-13T07:49:33;96256.69;;;1.74;94.98
11329;BME280;5719;42.714;23.732;2023-02-13T07:52:01;96262.53;;;1.82;93.51
11329;BME280;5719;42.714;23.732;2023-02-13T07:54:28;96270.38;;;1.63;92.19
11329;BME280;5719;42.714;23.732;2023-02-13T07:56:56;96265.25;;;1.64;92.69
11329;BME280;5719;42.714;23.732;2023-02-13T07:59:22;96255.78;;;1.75;93.10
11329;BME280;5719;42.714;23.732;2023-02-13T08:01:49;96262.69;;;1.64;91.88
11329;BME280;5719;42.714;23.732;2023-02-13T08:04:16;96264.53;;;1.50;92.16
11329;BME280;5719;42.714;23.732;2023-02-13T08:06:45;96262.03;;;1.42;92.94
11329;BME280;5719;42.714;23.732;2023-02-13T08:09:18;96265.63;;;1.17;96.59
11329;BME280;5719;42.714;23.732;2023-02-13T08:12:05;96262.09;;;1.36;96.90
11329;BME280;5719;42.714;23.732;2023-02-13T08:14:32;96259.50;;;1.41;95.67
11329;BME280;5719;42.714;23.732;2023-02-13T08:17:00;96266.16;;;1.57;95.78
11329;BME280;5719;42.714;23.732;2023-02-13T08:19:27;96252.28;;;0.86;97.67
11329;BME280;5719;42.714;23.732;2023-02-13T08:21:55;96259.13;;;0.71;98.61
11329;BME280;5719;42.714;23.732;2023-02-13T08:24:22;96259.84;;;0.95;97.91
11329;BME280;5719;42.714;23.732;2023-02-13T08:26:49;96264.06;;;0.95;98.47
11329;BME280;5719;42.714;23.732;2023-02-13T08:29:16;96266.66;;;0.93;97.32
11329;BME280;5719;42.714;23.732;2023-02-13T08:31:43;96264.16;;;0.87;97.88
11329;BME280;5719;42.714;23.732;2023-02-13T08:34:10;96271.00;;;0.70;97.09
11329;BME280;5719;42.714;23.732;2023-02-13T08:36:37;96263.50;;;0.41;100.00
11329;BME280;5719;42.714;23.732;2023-02-13T08:39:05;96269.38;;;0.62;99.68
11329;BME280;5719;42.714;23.732;2023-02-13T08:41:32;96273.44;;;0.93;99.64
11329;BME280;5719;42.714;23.732;2023-02-13T08:44:00;96271.63;;;1.12;98.46
11329;BME280;5719;42.714;23.732;2023-02-13T08:46:27;96262.25;;;1.15;96.02
11329;BME280;5719;42.714;23.732;2023-02-13T08:48:54;96257.38;;;0.80;98.00
11329;BME280;5719;42.714;23.732;2023-02-13T08:51:21;96256.34;;;1.12;97.02
11329;BME280;5719;42.714;23.732;2023-02-13T08:53:48;96257.94;;;1.26;97.47
11329;BME280;5719;42.714;23.732;2023-02-13T08:56:16;96247.50;;;1.54;97.49
11329;BME280;5719;42.714;23.732;2023-02-13T08:58:43;96249.81;;;1.81;92.69
11329;BME280;5719;42.714;23.732;2023-02-13T09:01:10;96254.16;;;1.68;93.09
11329;BME280;5719;42.714;23.732;2023-02-13T09:03:38;96233.03;;;1.59;93.15
11329;BME280;5719;42.714;23.732;2023-02-13T09:06:05;96248.53;;;2.21;91.61
11329;BME280;5719;42.714;23.732;2023-02-13T09:08:33;96240.25;;;2.70;88.14
11329;BME280;5719;42.714;23.732;2023-02-13T09:11:01;96254.34;;;2.98;84.75
11329;BME280;5719;42.714;23.732;2023-02-13T09:13:31;96251.06;;;2.88;84.29
11329;BME280;5719;42.714;23.732;2023-02-13T09:15:59;96255.69;;;2.61;84.45
11329;BME280;5719;42.714;23.732;2023-02-13T09:18:27;96236.47;;;2.34;87.75
11329;BME280;5719;42.714;23.732;2023-02-13T09:20:58;96245.22;;;2.12;86.73
11329;BME280;5719;42.714;23.732;2023-02-13T09:23:26;96243.16;;;1.65;91.34
11329;BME280;5719;42.714;23.732;2023-02-13T09:25:52;96246.38;;;1.83;92.17
11329;BME280;5719;42.714;23.732;2023-02-13T09:28:19;96233.47;;;1.98;91.51
11329;BME280;5719;42.714;23.732;2023-02-13T09:30:48;96249.97;;;1.63;92.90
11329;BME280;5719;42.714;23.732;2023-02-13T09:33:15;96251.41;;;1.92;94.20
11329;BME280;5719;42.714;23.732;2023-02-13T09:35:42;96248.31;;;1.59;94.41
11329;BME280;5719;42.714;23.732;2023-02-13T09:38:12;96238.94;;;1.64;94.45
11329;BME280;5719;42.714;23.732;2023-02-13T09:40:43;96219.94;;;1.92;92.79
11329;BME280;5719;42.714;23.732;2023-02-13T09:43:15;96238.16;;;2.35;90.24
11329;BME280;5719;42.714;23.732;2023-02-13T09:45:47;96221.81;;;2.51;89.13
11329;BME280;5719;42.714;23.732;2023-02-13T09:48:21;96228.47;;;2.60;86.82
11329;BME280;5719;42.714;23.732;2023-02-13T09:50:50;96213.59;;;2.89;86.14
11329;BME280;5719;42.714;23.732;2023-02-13T09:53:21;96212.84;;;2.81;85.17
11329;BME280;5719;42.714;23.732;2023-02-13T09:55:59;96214.16;;;3.09;86.17
11329;BME280;5719;42.714;23.732;2023-02-13T09:58:37;96204.75;;;3.13;85.76
11329;BME280;5719;42.714;23.732;2023-02-13T10:01:19;96204.22;;;3.43;84.13
11329;BME280;5719;42.714;23.732;2023-02-13T10:03:56;96201.50;;;3.02;83.44
11329;BME280;5719;42.714;23.732;2023-02-13T10:06:35;96206.09;;;3.35;83.23
11329;BME280;5719;42.714;23.732;2023-02-13T10:09:21;96192.03;;;3.60;82.68
11329;BME280;5719;42.714;23.732;2023-02-13T10:12:12;96199.03;;;3.97;79.24
11329;BME280;5719;42.714;23.732;2023-02-13T10:14:50;96184.38;;;3.59;79.70
11329;BME280;5719;42.714;23.732;2023-02-13T10:17:23;96183.16;;;3.29;82.18
11329;BME280;5719;42.714;23.732;2023-02-13T10:19:55;96171.44;;;3.17;83.02
11329;BME280;5719;42.714;23.732;2023-02-13T10:22:27;96156.97;;;3.65;80.54
11329;BME280;5719;42.714;23.732;2023-02-13T10:24:59;96176.88;;;4.77;78.03
11329;BME280;5719;42.714;23.732;2023-02-13T10:27:33;96162.63;;;5.71;69.77
11329;BME280;5719;42.714;23.732;2023-02-13T10:30:02;96164.69;;;5.57;69.88
11329;BME280;5719;42.714;23.732;2023-02-13T10:32:37;96147.13;;;5.42;70.80
11329;BME280;5719;42.714;23.732;2023-02-13T10:35:17;96149.69;;;6.07;68.14
11329;BME280;5719;42.714;23.732;2023-02-13T10:37:44;96152.38;;;6.62;65.64
11329;BME280;5719;42.714;23.732;2023-02-13T10:40:16;96150.59;;;6.64;66.30
11329;BME280;5719;42.714;23.732;2023-02-13T10:42:44;96142.63;;;7.52;61.55
11329;BME280;5719;42.714;23.732;2023-02-13T10:45:31;96142.69;;;6.70;62.81
11329;BME280;5719;42.714;23.732;2023-02-13T10:48:22;96136.00;;;6.93;62.31
11329;BME280;5719;42.714;23.732;2023-02-13T10:51:00;96115.69;;;6.28;64.47
11329;BME280;5719;42.714;23.732;2023-02-13T10:53:42;96127.97;;;6.75;62.77
11329;BME280;5719;42.714;23.732;2023-02-13T10:56:26;96124.47;;;7.57;61.27
11329;BME280;5719;42.714;23.732;2023-02-13T10:59:08;96136.44;;;7.82;60.22
11329;BME280;5719;42.714;23.732;2023-02-13T11:01:46;96119.09;;;7.38;59.18
11329;BME280;5719;42.714;23.732;2023-02-13T11:04:18;96103.97;;;7.78;59.27
11329;BME280;5719;42.714;23.732;2023-02-13T11:06:50;96117.84;;;8.69;54.58
11329;BME280;5719;42.714;23.732;2023-02-13T11:09:18;96118.22;;;7.39;58.23
11329;BME280;5719;42.714;23.732;2023-02-13T11:11:46;96103.25;;;7.98;59.00
11329;BME280;5719;42.714;23.732;2023-02-13T11:14:14;96087.16;;;9.87;52.61
11329;BME280;5719;42.714;23.732;2023-02-13T11:16:52;96093.72;;;9.94;50.17
11329;BME280;5719;42.714;23.732;2023-02-13T11:19:25;96078.50;;;9.48;51.57
11329;BME280;5719;42.714;23.732;2023-02-13T11:21:57;96077.19;;;8.75;54.81
11329;BME280;5719;42.714;23.732;2023-02-13T11:24:26;96096.31;;;8.48;54.54
11329;BME280;5719;42.714;23.732;2023-02-13T11:26:57;96073.75;;;7.60;57.55
11329;BME280;5719;42.714;23.732;2023-02-13T11:29:26;96079.28;;;7.98;57.55
11329;BME280;5719;42.714;23.732;2023-02-13T11:32:08;96071.34;;;9.14;54.93
11329;BME280;5719;42.714;23.732;2023-02-13T11:34:44;96062.56;;;10.17;53.17
11329;BME280;5719;42.714;23.732;2023-02-13T11:37:24;96060.53;;;9.85;50.97
11329;BME280;5719;42.714;23.732;2023-02-13T11:39:53;96059.28;;;9.75;52.29
11329;BME280;5719;42.714;23.732;2023-02-13T11:42:24;96064.00;;;10.60;50.10
11329;BME280;5719;42.714;23.732;2023-02-13T11:44:55;96054.06;;;10.53;49.43
11329;BME280;5719;42.714;23.732;2023-02-13T11:47:37;96050.22;;;10.78;48.41
11329;BME280;5719;42.714;23.732;2023-02-13T11:50:19;96050.84;;;10.83;48.99
11329;BME280;5719;42.714;23.732;2023-02-13T11:52:54;96036.38;;;10.25;49.02
11329;BME280;5719;42.714;23.732;2023-02-13T11:55:28;96035.72;;;10.57;48.76
11329;BME280;5719;42.714;23.732;2023-02-13T11:57:55;96023.41;;;10.62;47.74
11329;BME280;5719;42.714;23.732;2023-02-13T12:00:29;96028.88;;;11.09;47.90
11329;BME280;5719;42.714;23.732;2023-02-13T12:02:58;96024.81;;;11.55;47.47
11329;BME280;5719;42.714;23.732;2023-02-13T12:05:27;96015.41;;;13.12;43.84
11329;BME280;5719;42.714;23.732;2023-02-13T12:07:57;96015.53;;;13.55;41.14
11329;BME280;5719;42.714;23.732;2023-02-13T12:10:26;96018.75;;;11.39;43.99
11329;BME280;5719;42.714;23.732;2023-02-13T12:12:55;96018.72;;;10.16;47.14
11329;BME280;5719;42.714;23.732;2023-02-13T12:15:25;96008.72;;;9.69;48.76
11329;BME280;5719;42.714;23.732;2023-02-13T12:18:02;96005.06;;;9.55;48.15
11329;BME280;5719;42.714;23.732;2023-02-13T12:20:39;96004.56;;;10.04;49.37
11329;BME280;5719;42.714;23.732;2023-02-13T12:23:18;95946.34;;;10.52;47.35
11329;BME280;5719;42.714;23.732;2023-02-13T12:25:58;95995.47;;;9.96;47.86
11329;BME280;5719;42.714;23.732;2023-02-13T12:28:42;95988.81;;;10.65;47.98
11329;BME280;5719;42.714;23.732;2023-02-13T12:31:22;95991.13;;;10.71;47.04
11329;BME280;5719;42.714;23.732;2023-02-13T12:34:15;95988.41;;;11.75;46.08
11329;BME280;5719;42.714;23.732;2023-02-13T12:36:56;95978.47;;;12.77;43.26
11329;BME280;5719;42.714;23.732;2023-02-13T12:39:30;95989.47;;;12.51;42.53
11329;BME280;5719;42.714;23.732;2023-02-13T12:42:15;95965.53;;;13.51;41.83
11329;BME280;5719;42.714;23.732;2023-02-13T12:45:01;95971.69;;;13.05;42.45
11329;BME280;5719;42.714;23.732;2023-02-13T12:47:33;95974.22;;;12.14;42.97
11329;BME280;5719;42.714;23.732;2023-02-13T12:50:23;95980.31;;;11.31;45.53
11329;BME280;5719;42.714;23.732;2023-02-13T12:53:09;95961.25;;;12.61;42.91
11329;BME280;5719;42.714;23.732;2023-02-13T12:56:02;95960.97;;;12.20;42.31
11329;BME280;5719;42.714;23.732;2023-02-13T12:58:49;95961.16;;;11.84;43.46
11329;BME280;5719;42.714;23.732;2023-02-13T13:01:29;95940.38;;;12.17;43.53
11329;BME280;5719;42.714;23.732;2023-02-13T13:04:08;95951.63;;;13.22;41.51
11329;BME280;5719;42.714;23.732;2023-02-13T13:06:55;95947.28;;;11.85;43.66
11329;BME280;5719;42.714;23.732;2023-02-13T13:09:43;95946.72;;;11.47;44.69
11329;BME280;5719;42.714;23.732;2023-02-13T13:12:29;95952.75;;;10.62;45.28
11329;BME280;5719;42.714;23.732;2023-02-13T13:15:05;95922.44;;;10.11;47.16
11329;BME280;5719;42.714;23.732;2023-02-13T13:17:50;95934.28;;;11.69;43.07
11329;BME280;5719;42.714;23.732;2023-02-13T13:20:39;95935.50;;;11.14;44.47
11329;BME280;5719;42.714;23.732;2023-02-13T13:23:12;95929.84;;;11.56;42.93
11329;BME280;5719;42.714;23.732;2023-02-13T13:25:50;95922.25;;;11.03;44.38
11329;BME280;5719;42.714;23.732;2023-02-13T13:28:21;95926.78;;;11.32;44.36
11329;BME280;5719;42.714;23.732;2023-02-13T13:30:49;95899.50;;;10.75;45.55
11329;BME280;5719;42.714;23.732;2023-02-13T13:33:18;95918.81;;;13.21;41.34
11329;BME280;5719;42.714;23.732;2023-02-13T13:35:54;95907.97;;;13.86;39.42
11329;BME280;5719;42.714;23.732;2023-02-13T13:38:32;95909.91;;;14.37;38.55
11329;BME280;5719;42.714;23.732;2023-02-13T13:41:09;95907.09;;;12.70;40.00
11329;BME280;5719;42.714;23.732;2023-02-13T13:43:46;95907.88;;;13.16;39.65